Time;durP1;ratioP1;P1;durP2;ratioP2;P2;SDS_P1;SDS_P2;PMS_P1;PMS_P2;Temp;Humidity;BMP_temperature;BMP_pressure;BME280_temperature;BME280_humidity;BME280_pressure;Samples;Min_cycle;Max_cycle;Signal;HPM_P1;HPM_P2
2022/07/27 00:01:58;;;;;;;8.02;3.20;;;;;;;13.63;100.00;102219.22;7380157;19;20014;-75
2022/07/27 00:04:28;;;;;;;8.27;3.30;;;;;;;13.62;100.00;102214.78;7382578;19;20070;-75
2022/07/27 00:07:01;;;;;;;7.53;2.83;;;;;;;13.61;100.00;102215.66;7382548;19;20010;-75
2022/07/27 00:09:32;;;;;;;6.65;2.40;;;;;;;13.58;100.00;102220.84;7380005;19;20033;-76
2022/07/27 00:12:02;;;;;;;5.68;2.63;;;;;;;13.52;100.00;102210.22;7380834;19;20014;-74
2022/07/27 00:14:32;;;;;;;5.68;2.50;;;;;;;13.50;100.00;102209.28;7383619;19;20078;-74
2022/07/27 00:17:02;;;;;;;5.60;2.70;;;;;;;13.50;100.00;102215.44;7380748;19;20036;-74
2022/07/27 00:19:32;;;;;;;8.77;3.38;;;;;;;13.50;100.00;102217.19;7382208;19;20014;-74
2022/07/27 00:22:04;;;;;;;7.00;2.80;;;;;;;13.47;100.00;102212.72;7382181;19;20074;-75
2022/07/27 00:24:35;;;;;;;6.97;2.70;;;;;;;13.49;100.00;102220.69;7381279;19;20091;-74
2022/07/27 00:27:06;;;;;;;5.90;2.63;;;;;;;13.50;100.00;102220.72;7378698;19;20010;-74
2022/07/27 00:29:35;;;;;;;4.82;2.47;;;;;;;13.54;100.00;102216.38;7376181;19;20006;-75
2022/07/27 00:32:07;;;;;;;10.32;3.20;;;;;;;13.57;100.00;102219.06;7382189;19;20014;-74
2022/07/27 00:34:41;;;;;;;10.25;2.88;;;;;;;13.59;100.00;102223.53;7379943;19;20082;-74
2022/07/27 00:37:14;;;;;;;11.02;3.47;;;;;;;13.60;100.00;102219.16;7379344;19;20323;-74
2022/07/27 00:39:44;;;;;;;14.23;4.23;;;;;;;13.58;100.00;102216.47;7380555;19;20114;-75
2022/07/27 00:42:14;;;;;;;12.32;4.00;;;;;;;13.54;100.00;102206.72;7380806;19;20014;-75
2022/07/27 00:44:44;;;;;;;12.35;3.97;;;;;;;13.52;100.00;102215.47;7378888;19;20078;-75
2022/07/27 00:47:14;;;;;;;17.85;4.70;;;;;;;13.45;100.00;102218.81;7379624;19;20642;-75
2022/07/27 00:49:44;;;;;;;14.75;4.70;;;;;;;13.39;100.00;102209.03;7379732;19;20010;-74
2022/07/27 00:52:23;;;;;;;11.18;3.63;;;;;;;13.37;100.00;102210.75;7376812;19;20483;-75
2022/07/27 00:54:54;;;;;;;14.32;4.72;;;;;;;13.31;100.00;102208.84;7378643;19;20550;-75
2022/07/27 00:57:25;;;;;;;12.50;4.10;;;;;;;13.25;100.00;102206.06;7375990;19;20014;-75
2022/07/27 00:59:56;;;;;;;9.80;3.53;;;;;;;13.26;100.00;102210.47;7378716;19;20018;-75
2022/07/27 01:02:29;;;;;;;9.43;3.50;;;;;;;13.22;100.00;102206.00;7377831;19;20026;-75
2022/07/27 01:05:04;;;;;;;6.63;2.67;;;;;;;13.19;100.00;102199.75;7379275;19;20260;-75
2022/07/27 01:07:38;;;;;;;9.43;2.80;;;;;;;13.18;100.00;102208.50;7378292;19;20025;-75
2022/07/27 01:10:09;;;;;;;7.18;2.83;;;;;;;13.17;100.00;102210.25;7377874;19;20056;-75
2022/07/27 01:12:39;;;;;;;10.73;2.80;;;;;;;13.15;100.00;102206.66;7378677;19;20015;-75
2022/07/27 01:15:11;;;;;;;7.25;2.83;;;;;;;13.13;100.00;102205.72;7378265;19;20010;-74
2022/07/27 01:17:41;;;;;;;8.63;3.00;;;;;;;13.12;100.00;102198.69;7378188;19;20239;-75
2022/07/27 01:20:12;;;;;;;12.82;3.08;;;;;;;13.12;100.00;102203.94;7378532;19;20468;-74
2022/07/27 01:22:44;;;;;;;9.90;2.53;;;;;;;13.08;100.00;102208.25;7376646;19;20047;-74
2022/07/27 01:25:15;;;;;;;5.53;2.60;;;;;;;13.04;100.00;102200.25;7377189;19;20007;-76
2022/07/27 01:27:46;;;;;;;5.45;2.55;;;;;;;13.02;100.00;102197.56;7374313;19;20010;-75
2022/07/27 01:30:32;;;;;;;6.75;3.05;;;;;;;13.00;100.00;102206.28;7376450;19;20022;-75
2022/07/27 01:33:04;;;;;;;6.75;2.65;;;;;;;12.96;100.00;102201.78;7378747;19;20700;-77
2022/07/27 01:35:35;;;;;;;6.83;2.57;;;;;;;12.93;100.00;102206.97;7380356;19;20307;-77
2022/07/27 01:38:09;;;;;;;9.25;2.95;;;;;;;12.90;100.00;102201.63;7376602;19;20102;-77
2022/07/27 01:40:39;;;;;;;7.95;2.80;;;;;;;12.83;100.00;102202.31;7380081;19;20014;-76
2022/07/27 01:43:11;;;;;;;6.53;3.00;;;;;;;12.84;100.00;102196.22;7375887;19;20069;-77
2022/07/27 01:45:41;;;;;;;8.85;2.50;;;;;;;12.77;100.00;102203.94;7377300;19;20010;-76
2022/07/27 01:48:12;;;;;;;7.10;2.70;;;;;;;12.76;100.00;102194.28;7376118;19;20320;-77
2022/07/27 01:50:43;;;;;;;7.45;2.90;;;;;;;12.72;100.00;102195.03;7377910;19;20134;-76
2022/07/27 01:53:21;;;;;;;;;;;;;;;12.69;100.00;102194.06;7373405;19;20577;-76
2022/07/27 01:55:53;;;;;;;4.97;2.42;;;;;;;12.67;100.00;102198.41;7379230;19;19914;-76
2022/07/27 01:58:25;;;;;;;4.70;2.60;;;;;;;12.64;100.00;102191.31;7377513;19;20023;-76
2022/07/27 02:00:55;;;;;;;5.25;2.53;;;;;;;12.61;100.00;102193.88;7376973;19;20035;-76
2022/07/27 02:03:24;;;;;;;10.90;2.85;;;;;;;12.58;100.00;102199.06;7379081;19;20042;-77
2022/07/27 02:05:54;;;;;;;10.07;2.70;;;;;;;12.54;100.00;102196.31;7377298;19;20023;-77
2022/07/27 02:08:27;;;;;;;3.90;2.35;;;;;;;12.51;100.00;102191.84;7376072;19;20011;-76
2022/07/27 02:13:40;;;;;;;7.20;2.58;;;;;;;12.46;100.00;102195.25;7377527;19;20010;-77
2022/07/27 02:16:10;;;;;;;5.50;2.70;;;;;;;12.44;100.00;102189.94;7377305;19;20014;-77
2022/07/27 02:18:46;;;;;;;9.60;2.90;;;;;;;12.39;100.00;102181.03;7377791;19;20019;-76
2022/07/27 02:21:17;;;;;;;6.70;2.72;;;;;;;12.37;100.00;102190.63;7376059;19;20400;-76
2022/07/27 02:23:50;;;;;;;4.35;2.47;;;;;;;12.32;100.00;102184.34;7375773;19;20007;-76
2022/07/27 02:26:21;;;;;;;5.60;2.40;;;;;;;12.31;100.00;102187.81;7363988;19;20449;-79
2022/07/27 02:28:51;;;;;;;7.47;2.75;;;;;;;12.29;100.00;102185.16;7380450;19;20086;-77
2022/07/27 02:31:20;;;;;;;7.03;2.55;;;;;;;12.27;100.00;102186.84;7377798;19;20018;-77
2022/07/27 02:33:50;;;;;;;9.82;3.13;;;;;;;12.24;100.00;102183.22;7378049;19;20734;-76
2022/07/27 02:36:21;;;;;;;6.88;2.83;;;;;;;12.22;100.00;102182.28;7378918;19;20014;-77
2022/07/27 02:38:54;;;;;;;6.28;2.92;;;;;;;12.19;100.00;102180.47;7379348;19;20010;-76
2022/07/27 02:41:24;;;;;;;11.27;3.05;;;;;;;12.16;100.00;102182.13;7378406;19;21232;-78
2022/07/27 02:43:54;;;;;;;6.35;2.63;;;;;;;12.16;100.00;102182.13;7378218;19;20509;-76
2022/07/27 02:46:24;;;;;;;9.50;2.40;;;;;;;12.13;100.00;102177.66;7378063;19;20463;-77
2022/07/27 02:48:55;;;;;;;6.72;2.67;;;;;;;12.15;100.00;102175.09;7383223;19;20122;-76
2022/07/27 02:51:25;;;;;;;7.60;2.92;;;;;;;12.16;100.00;102182.13;7378566;19;20014;-76
2022/07/27 02:53:57;;;;;;;8.15;3.28;;;;;;;12.14;100.00;102184.72;7372772;19;20031;-77
2022/07/27 02:56:30;;;;;;;6.95;2.67;;;;;;;12.18;100.00;102183.06;7380289;19;20086;-77
2022/07/27 02:59:01;;;;;;;8.20;3.05;;;;;;;12.15;100.00;102186.50;7380175;19;20022;-77
2022/07/27 03:01:31;;;;;;;7.65;2.70;;;;;;;12.17;100.00;102178.66;7381700;19;20021;-77
2022/07/27 03:04:02;;;;;;;9.15;2.47;;;;;;;12.22;100.00;102174.41;7382039;19;20030;-77
2022/07/27 03:06:32;;;;;;;6.93;3.08;;;;;;;12.26;100.00;102173.66;7381208;19;20106;-77
2022/07/27 03:09:06;;;;;;;6.22;2.78;;;;;;;12.31;100.00;102175.56;7380985;19;20010;-77
2022/07/27 03:11:36;;;;;;;7.72;2.70;;;;;;;12.38;100.00;102171.34;7379929;19;20014;-74
2022/07/27 03:14:06;;;;;;;7.05;2.83;;;;;;;12.43;100.00;102180.25;7375392;19;20276;-76
2022/07/27 03:16:36;;;;;;;4.43;2.00;;;;;;;12.49;100.00;102177.75;7375594;19;20006;-78
2022/07/27 03:19:06;;;;;;;5.47;2.60;;;;;;;12.57;100.00;102175.34;7372253;19;20014;-76
2022/07/27 03:21:37;;;;;;;5.93;2.50;;;;;;;12.63;100.00;102172.84;7374788;19;20010;-77
2022/07/27 03:24:10;;;;;;;5.70;2.60;;;;;;;12.68;100.00;102179.13;7372849;19;20062;-76
2022/07/27 03:26:40;;;;;;;4.13;2.22;;;;;;;12.75;100.00;102173.16;7378142;19;20018;-79
2022/07/27 03:29:10;;;;;;;6.95;2.90;;;;;;;12.82;100.00;102176.84;7374373;19;20013;-76
2022/07/27 03:31:44;;;;;;;5.28;2.35;;;;;;;12.84;100.00;102175.16;7374210;19;20145;-78
2022/07/27 03:34:16;;;;;;;7.97;2.60;;;;;;;12.91;100.00;102177.09;7376073;19;20479;-76
2022/07/27 03:36:46;;;;;;;8.07;2.83;;;;;;;13.01;100.00;102184.34;7376143;19;20010;-76
2022/07/27 03:39:19;;;;;;;5.72;2.20;;;;;;;13.07;100.00;102185.41;7377875;19;20023;-76
2022/07/27 03:41:49;;;;;;;5.90;2.22;;;;;;;13.09;100.00;102178.44;7374711;19;20046;-76
2022/07/27 03:44:22;;;;;;;3.72;1.90;;;;;;;13.15;100.00;102177.69;7375449;19;20007;-77
2022/07/27 03:46:53;;;;;;;3.15;1.73;;;;;;;13.18;100.00;102183.06;7374182;19;20007;-76
2022/07/27 03:49:23;;;;;;;5.90;2.10;;;;;;;13.24;100.00;102182.31;7376478;19;20460;-76
2022/07/27 03:52:06;;;;;;;5.75;2.05;;;;;;;13.23;100.00;102181.44;7374975;19;20043;-76
2022/07/27 03:54:56;;;;;;;4.82;1.90;;;;;;;13.27;100.00;102180.66;7373504;19;20018;-76
2022/07/27 03:57:43;;;;;;;4.22;1.92;;;;;;;13.29;100.00;102183.31;7374439;19;20467;-77
2022/07/27 04:03:47;;;;;;;4.38;2.13;;;;;;;13.38;100.00;102187.06;7378086;19;20420;-76
2022/07/27 04:06:55;;;;;;;5.95;1.90;;;;;;;13.47;100.00;102186.38;7380133;19;20019;-77
2022/07/27 04:13:20;;;;;;;3.85;2.00;;;;;;;13.57;100.00;102182.16;7382362;19;20039;-76
2022/07/27 04:19:50;;;;;;;7.35;2.55;;;;;;;13.65;100.00;102191.13;7383131;19;20515;-76
2022/07/27 04:22:49;;;;;;;4.05;2.00;;;;;;;13.69;100.00;102191.25;7378971;19;20015;-76
2022/07/27 04:26:06;;;;;;;;;;;;;;;;;;;;;
2022/07/27 04:28:51;;;;;;;3.15;1.90;;;;;;;13.74;100.00;102196.63;7385611;19;20006;-77
2022/07/27 04:31:54;;;;;;;5.20;2.03;;;;;;;13.79;100.00;102200.25;7382143;19;20036;-76
2022/07/27 04:34:39;;;;;;;5.93;2.40;;;;;;;13.83;100.00;102202.09;7383160;19;20074;-76
2022/07/27 04:37:39;;;;;;;4.60;2.20;;;;;;;13.85;100.00;102202.13;7380651;19;20621;-76
2022/07/27 04:41:25;;;;;;;5.15;2.20;;;;;;;13.94;100.00;102204.97;7380708;19;20839;-76
2022/07/27 04:47:53;;;;;;;;;;;;;;;;;;;;;
2022/07/27 04:50:43;;;;;;;4.93;2.30;;;;;;;13.87;100.00;102208.31;7381884;19;20036;-76
2022/07/27 05:00:51;;;;;;;7.28;2.22;;;;;;;14.10;100.00;102214.09;7380597;19;20039;-75
2022/07/27 05:16:04;;;;;;;5.97;2.50;;;;;;;14.10;100.00;102217.63;7376752;19;20010;-75
2022/07/27 05:18:51;;;;;;;5.05;2.20;;;;;;;14.19;100.00;102222.19;7379607;19;20003;-75
2022/07/27 05:21:32;;;;;;;4.88;2.80;;;;;;;14.22;100.00;102224.88;7380102;19;20333;-75
2022/07/27 05:24:20;;;;;;;;;;;;;;;;;;;;;
2022/07/27 05:26:53;;;;;;;8.35;2.30;;;;;;;14.36;100.00;102221.66;7379546;19;20014;-75
2022/07/27 05:30:00;;;;;;;7.18;2.50;;;;;;;14.44;100.00;102229.78;7380171;19;20017;-74
2022/07/27 05:32:38;;;;;;;4.32;2.40;;;;;;;14.50;100.00;102226.34;7380911;19;20026;-75
2022/07/27 05:35:16;;;;;;;6.07;2.50;;;;;;;14.57;100.00;102229.13;7379088;19;20018;-74
2022/07/27 05:37:53;;;;;;;8.25;2.60;;;;;;;14.61;100.00;102228.31;7382562;19;20002;-75
2022/07/27 05:40:52;;;;;;;4.50;2.42;;;;;;;14.63;100.00;102231.88;7379433;19;20010;-76
2022/07/27 05:43:30;;;;;;;6.43;2.63;;;;;;;14.63;100.00;102231.88;7383350;19;20360;-75
2022/07/27 05:46:02;;;;;;;6.80;2.28;;;;;;;14.63;100.00;102237.16;7378576;19;20746;-76
2022/07/27 05:48:37;;;;;;;6.80;2.53;;;;;;;14.67;100.00;102238.09;7379144;19;20135;-75
2022/07/27 05:51:11;;;;;;;5.38;2.33;;;;;;;14.70;100.00;102236.41;7382068;19;20172;-76
2022/07/27 05:53:44;;;;;;;6.00;2.30;;;;;;;14.72;100.00;102236.44;7374360;19;20047;-76
2022/07/27 05:56:14;;;;;;;4.97;2.38;;;;;;;14.67;100.00;102240.75;7379723;19;20344;-75
2022/07/27 05:58:45;;;;;;;8.07;2.58;;;;;;;14.60;100.00;102237.09;7380320;19;20468;-76
2022/07/27 06:01:21;;;;;;;5.63;2.45;;;;;;;14.57;100.00;102242.31;7379143;19;20464;-76
2022/07/27 06:03:51;;;;;;;7.57;2.67;;;;;;;14.64;100.00;102238.03;7380199;19;20090;-74
2022/07/27 06:09:33;;;;;;;5.80;2.22;;;;;;;14.54;100.00;102252.84;7380343;19;20011;-75
2022/07/27 06:12:18;;;;;;;5.75;2.58;;;;;;;14.53;100.00;102255.47;7379362;19;20285;-74
2022/07/27 06:21:50;;;;;;;9.32;2.60;;;;;;;14.35;100.00;102261.22;7373962;19;20046;-74
2022/07/27 06:28:36;;;;;;;4.90;2.33;;;;;;;14.40;100.00;102270.13;7376015;19;20011;-75
2022/07/27 06:31:39;;;;;;;5.40;2.05;;;;;;;14.55;100.00;102270.47;7378225;19;20011;-74
2022/07/27 06:34:31;;;;;;;6.28;2.58;;;;;;;14.52;100.00;102273.06;7374183;19;20022;-75
2022/07/27 06:37:15;;;;;;;10.30;2.80;;;;;;;14.50;100.00;102276.53;7378807;19;20258;-74
2022/07/27 06:39:47;;;;;;;5.50;2.50;;;;;;;14.49;100.00;102275.63;7373824;19;20591;-74
2022/07/27 06:42:20;;;;;;;6.43;2.45;;;;;;;14.74;100.00;102271.69;7375198;19;20014;-73
2022/07/27 06:44:50;;;;;;;10.20;2.95;;;;;;;14.86;100.00;102282.47;7374837;19;20097;-73
2022/07/27 06:47:21;;;;;;;6.93;2.20;;;;;;;15.01;100.00;102279.22;7373550;19;20010;-74
2022/07/27 06:49:57;;;;;;;9.43;2.97;;;;;;;14.88;100.00;102280.75;7374258;19;20010;-75
2022/07/27 06:52:27;;;;;;;6.70;2.40;;;;;;;14.92;100.00;102277.31;7371135;19;20032;-73
2022/07/27 06:54:57;;;;;;;6.97;2.65;;;;;;;15.13;100.00;102274.16;7372527;19;20014;-73
2022/07/27 06:57:30;;;;;;;7.68;2.40;;;;;;;15.28;100.00;102268.25;7373092;19;20435;-75
2022/07/27 07:00:01;;;;;;;7.75;2.65;;;;;;;15.37;100.00;102276.31;7373421;19;20023;-74
2022/07/27 07:02:31;;;;;;;5.60;2.70;;;;;;;15.60;100.00;102274.09;7371568;19;20014;-73
2022/07/27 07:05:01;;;;;;;6.65;3.00;;;;;;;15.76;100.00;102276.06;7374911;19;20362;-73
2022/07/27 07:07:31;;;;;;;7.53;2.58;;;;;;;15.62;100.00;102272.31;7374153;19;20021;-73
2022/07/27 07:10:03;;;;;;;4.53;2.20;;;;;;;15.68;100.00;102278.59;7368701;19;20014;-73
2022/07/27 07:12:36;;;;;;;7.80;2.63;;;;;;;15.74;100.00;102276.91;7373460;19;20068;-73
2022/07/27 07:15:07;;;;;;;7.50;2.25;;;;;;;16.18;100.00;102278.41;7369025;19;20524;-73
2022/07/27 07:17:37;;;;;;;4.15;2.17;;;;;;;16.29;100.00;102278.56;7372986;19;20045;-74
2022/07/27 07:20:09;;;;;;;4.75;2.50;;;;;;;16.25;100.00;102279.38;7371824;19;20014;-74
2022/07/27 07:22:40;;;;;;;6.40;2.10;;;;;;;16.27;100.00;102281.19;7373947;19;20018;-77
2022/07/27 07:25:10;;;;;;;6.43;2.10;;;;;;;16.54;100.00;102269.16;7375680;19;20029;-78
2022/07/27 07:27:43;;;;;;;5.40;1.92;;;;;;;16.73;100.00;102275.53;7372326;19;20011;-73
2022/07/27 07:30:14;;;;;;;6.40;2.15;;;;;;;17.06;100.00;102281.19;7369723;19;20015;-73
2022/07/27 07:32:44;;;;;;;3.60;1.92;;;;;;;17.05;100.00;102279.41;7374669;19;20025;-74
2022/07/27 07:35:15;;;;;;;6.22;2.17;;;;;;;17.35;100.00;102285.88;7370101;19;20036;-74
2022/07/27 07:37:45;;;;;;;6.70;2.20;;;;;;;17.51;100.00;102274.50;7379120;19;20043;-73
2022/07/27 07:40:19;;;;;;;4.57;2.03;;;;;;;17.91;99.24;102287.16;7381234;19;20006;-76
2022/07/27 07:43:14;;;;;;;5.90;2.15;;;;;;;17.17;96.94;102290.13;7380385;19;20010;-73
2022/07/27 07:45:45;;;;;;;6.63;2.40;;;;;;;17.39;97.05;102295.63;7381661;19;20010;-74
2022/07/27 07:48:26;;;;;;;7.10;2.03;;;;;;;17.90;93.51;102287.16;7380875;19;20010;-76
2022/07/27 07:50:56;;;;;;;4.70;2.17;;;;;;;18.89;95.47;102291.09;7381045;19;20015;-73
2022/07/27 07:53:26;;;;;;;3.05;1.90;;;;;;;19.13;87.25;102290.25;7374312;19;20508;-75
2022/07/27 07:55:58;;;;;;;4.20;1.70;;;;;;;19.79;87.38;102291.13;7381001;19;20549;-74
2022/07/27 07:58:32;;;;;;;7.83;2.20;;;;;;;20.06;85.88;102289.28;7379937;19;20444;-74
2022/07/27 08:01:02;;;;;;;5.82;2.15;;;;;;;20.03;78.54;102278.66;7379693;19;20026;-73
2022/07/27 08:03:34;;;;;;;4.97;2.13;;;;;;;20.33;79.88;102282.97;7378253;19;20013;-74
2022/07/27 08:06:05;;;;;;;4.55;1.80;;;;;;;20.37;80.32;102274.97;7379646;19;20019;-74
2022/07/27 08:08:35;;;;;;;11.45;2.40;;;;;;;20.95;78.97;102279.09;7379999;19;20018;-75
2022/07/27 08:11:05;;;;;;;3.78;1.70;;;;;;;20.56;74.48;102281.13;7380775;19;20010;-74
2022/07/27 08:13:37;;;;;;;7.28;2.20;;;;;;;20.42;75.68;102278.53;7379180;19;20083;-74
2022/07/27 08:16:08;;;;;;;6.97;2.20;;;;;;;20.23;75.15;102287.47;7380913;19;20007;-73
2022/07/27 08:18:38;;;;;;;4.25;1.75;;;;;;;19.96;77.10;102291.09;7379402;19;20100;-75
2022/07/27 08:21:08;;;;;;;4.72;1.98;;;;;;;19.58;75.88;102296.50;7381581;19;20010;-73
2022/07/27 08:23:38;;;;;;;5.70;1.70;;;;;;;19.54;76.58;102290.31;7380369;19;20045;-74
2022/07/27 08:26:08;;;;;;;3.17;1.80;;;;;;;19.12;77.71;102299.13;7382138;19;20021;-74
2022/07/27 08:28:40;;;;;;;6.57;2.10;;;;;;;19.17;77.93;102301.78;7380870;19;20018;-76
2022/07/27 08:31:10;;;;;;;4.40;1.48;;;;;;;18.89;74.06;102300.84;7382319;19;20114;-76
2022/07/27 08:33:45;;;;;;;5.03;1.92;;;;;;;18.63;71.63;102305.25;7380925;19;20010;-74
2022/07/27 08:36:17;;;;;;;4.72;1.70;;;;;;;18.39;76.72;102311.31;7383008;19;20328;-75
2022/07/27 08:38:47;;;;;;;5.78;1.95;;;;;;;18.61;76.86;102302.56;7381256;19;20046;-75
2022/07/27 08:41:20;;;;;;;3.83;1.90;;;;;;;18.62;76.17;102309.66;7379545;19;20009;-74
2022/07/27 08:43:56;;;;;;;6.70;2.10;;;;;;;18.66;75.29;102305.25;7380831;19;20027;-75
2022/07/27 08:46:28;;;;;;;7.38;2.08;;;;;;;18.31;76.13;102313.94;7380868;19;20685;-77
2022/07/27 08:48:58;;;;;;;6.97;2.03;;;;;;;18.68;76.87;102308.81;7381625;19;20107;-78
2022/07/27 08:51:29;;;;;;;5.50;2.15;;;;;;;18.70;76.12;102307.94;7382950;19;20111;-77
2022/07/27 08:54:00;;;;;;;6.93;2.20;;;;;;;18.55;76.22;102305.19;7372296;19;20483;-75
2022/07/27 08:56:29;;;;;;;4.78;1.77;;;;;;;18.65;76.12;102308.78;7376962;19;20448;-75
2022/07/27 08:59:02;;;;;;;6.38;2.13;;;;;;;18.66;73.44;102299.94;7380307;19;20524;-75
2022/07/27 09:01:33;;;;;;;2.75;1.73;;;;;;;18.78;74.17;102305.25;7377634;19;20014;-76
2022/07/27 09:04:06;;;;;;;9.57;1.90;;;;;;;19.03;73.71;102293.78;7382250;19;20011;-75
2022/07/27 09:06:43;;;;;;;6.25;2.08;;;;;;;19.40;70.85;102300.03;7379994;19;20025;-76
2022/07/27 09:09:14;;;;;;;4.35;1.95;;;;;;;20.12;70.17;102299.94;7384205;19;20078;-75
2022/07/27 09:11:45;;;;;;;4.32;1.92;;;;;;;20.69;65.81;102295.28;7380305;19;20029;-75
2022/07/27 09:14:19;;;;;;;4.28;2.00;;;;;;;20.95;63.41;102292.44;7383388;19;20483;-75
2022/07/27 09:16:55;;;;;;;8.18;2.22;;;;;;;21.43;62.18;102286.75;7385315;19;20014;-75
2022/07/27 09:19:55;;;;;;;2.80;1.70;;;;;;;20.96;62.81;102296.88;7382984;19;20040;-77
2022/07/27 09:22:44;;;;;;;4.93;1.98;;;;;;;20.73;64.54;102300.59;7382216;19;20054;-77
2022/07/27 09:25:21;;;;;;;5.55;1.92;;;;;;;20.60;65.64;102293.56;7385418;19;20048;-76
2022/07/27 09:28:11;;;;;;;7.95;2.22;;;;;;;20.48;64.86;102307.81;7386764;19;20086;-75
2022/07/27 09:30:46;;;;;;;3.22;1.63;;;;;;;21.31;61.30;102302.88;7385504;19;20483;-75
2022/07/27 09:33:17;;;;;;;5.72;1.85;;;;;;;21.83;59.31;102295.28;7387909;19;20019;-76
2022/07/27 09:36:00;;;;;;;4.70;1.70;;;;;;;21.76;56.68;102287.34;7380836;19;20014;-76
2022/07/27 09:38:30;;;;;;;6.22;1.90;;;;;;;21.84;57.22;102286.31;7381482;19;20482;-76
2022/07/27 09:41:04;;;;;;;4.45;1.95;;;;;;;21.65;58.88;102282.09;7380279;19;20329;-76
2022/07/27 09:43:46;;;;;;;3.53;1.85;;;;;;;20.94;56.43;102283.53;7379649;19;20047;-75
2022/07/27 09:46:41;;;;;;;7.45;2.20;;;;;;;20.41;57.84;102292.75;7381095;19;20358;-76
2022/07/27 09:49:29;;;;;;;6.47;2.03;;;;;;;20.59;58.39;102285.56;7380155;19;20014;-76
2022/07/27 09:52:05;;;;;;;5.13;1.92;;;;;;;20.49;59.80;102290.94;7380436;19;20034;-76
2022/07/27 09:54:45;;;;;;;4.53;1.75;;;;;;;20.07;61.27;102291.06;7375013;19;20074;-75
2022/07/27 09:57:17;;;;;;;3.00;1.95;;;;;;;19.90;63.25;102286.66;7379226;19;20048;-76
2022/07/27 09:59:47;;;;;;;5.63;1.83;;;;;;;19.78;62.66;102297.34;7380126;19;20056;-77
2022/07/27 10:02:20;;;;;;;5.45;2.00;;;;;;;19.54;63.81;102302.72;7376463;19;20422;-75
2022/07/27 10:05:02;;;;;;;3.42;1.70;;;;;;;19.59;64.93;102298.28;7380315;19;20014;-76
2022/07/27 10:07:33;;;;;;;6.55;2.35;;;;;;;19.01;70.93;102300.88;7379073;19;20022;-76
2022/07/27 10:10:04;;;;;;;7.60;1.90;;;;;;;19.05;72.10;102289.38;7377049;19;20093;-75
2022/07/27 10:12:34;;;;;;;7.05;2.33;;;;;;;19.08;72.39;102292.03;7375931;19;20014;-76
2022/07/27 10:15:05;;;;;;;3.05;1.70;;;;;;;19.12;72.53;102293.81;7377278;19;20539;-76
2022/07/27 10:17:40;;;;;;;4.10;2.25;;;;;;;19.22;69.95;102289.38;7377897;19;20014;-76
2022/07/27 10:20:13;;;;;;;5.80;1.90;;;;;;;19.28;68.31;102284.06;7376016;19;20014;-76
2022/07/27 10:22:54;;;;;;;4.40;1.95;;;;;;;19.31;68.89;102288.50;7374128;19;20595;-76
2022/07/27 10:25:28;;;;;;;2.58;1.65;;;;;;;19.11;68.05;102292.03;7375994;19;20003;-77
2022/07/27 10:28:13;;;;;;;4.40;1.92;;;;;;;19.19;67.63;102292.94;7379007;19;20017;-77
2022/07/27 10:30:43;;;;;;;4.25;1.75;;;;;;;19.21;69.06;102288.50;7376424;19;20354;-78
2022/07/27 10:33:44;;;;;;;3.90;1.73;;;;;;;19.49;68.30;102289.38;7375673;19;20014;-76
2022/07/27 10:36:18;;;;;;;6.00;1.90;;;;;;;20.00;66.41;102290.19;7375085;19;20034;-77
2022/07/27 10:38:55;;;;;;;8.80;2.10;;;;;;;20.65;64.29;102278.41;7375091;19;20035;-77
2022/07/27 10:41:29;;;;;;;5.35;1.90;;;;;;;21.57;62.15;102275.94;7376622;19;20013;-76
2022/07/27 10:44:32;;;;;;;5.90;2.08;;;;;;;22.15;59.01;102275.34;7377624;19;20029;-76
2022/07/27 10:47:03;;;;;;;5.00;2.08;;;;;;;22.50;56.58;102278.44;7376710;19;20010;-76
2022/07/27 10:49:37;;;;;;;6.03;1.83;;;;;;;21.53;55.78;102279.53;7375745;19;20006;-75
2022/07/27 10:52:41;;;;;;;4.68;2.17;;;;;;;20.65;58.65;102286.41;7373131;19;20643;-76
2022/07/27 10:55:47;;;;;;;3.53;1.60;;;;;;;20.87;60.35;102277.38;7375729;19;20483;-76
2022/07/27 10:58:52;;;;;;;4.75;1.95;;;;;;;20.84;59.98;102292.50;7376303;19;20014;-76
2022/07/27 11:01:23;;;;;;;7.85;2.38;;;;;;;20.93;58.78;102292.44;7375943;19;20352;-76
2022/07/27 11:03:54;;;;;;;3.85;1.77;;;;;;;20.91;57.60;102288.91;7375188;19;20057;-76
2022/07/27 11:06:33;;;;;;;4.70;1.98;;;;;;;21.05;55.33;102291.47;7378815;19;20010;-76
2022/07/27 11:09:26;;;;;;;3.35;1.85;;;;;;;21.10;55.25;102286.97;7377147;19;20021;-76
2022/07/27 11:12:19;;;;;;;2.65;1.73;;;;;;;21.10;56.39;102289.66;7377204;19;20015;-76
2022/07/27 11:14:53;;;;;;;5.22;1.92;;;;;;;21.26;56.70;102285.13;7378559;19;20034;-76
2022/07/27 11:17:26;;;;;;;3.42;1.88;;;;;;;21.30;54.85;102285.09;7374421;19;20438;-76
2022/07/27 11:20:16;;;;;;;5.57;2.30;;;;;;;21.19;53.86;102294.94;7377025;19;20097;-77
2022/07/27 11:22:49;;;;;;;3.00;1.55;;;;;;;21.41;55.89;102283.22;7380437;19;20003;-77
2022/07/27 11:25:39;;;;;;;5.53;1.50;;;;;;;21.74;55.76;102278.47;7375420;19;20017;-77
2022/07/27 11:28:09;;;;;;;10.52;1.98;;;;;;;20.76;55.31;102275.69;7376638;19;20011;-76
2022/07/27 11:30:40;;;;;;;5.50;2.15;;;;;;;21.38;54.07;102287.69;7373798;19;20007;-76
2022/07/27 11:33:10;;;;;;;2.17;1.52;;;;;;;20.54;53.59;102291.81;7374484;19;20040;-76
2022/07/27 11:35:52;;;;;;;4.93;1.77;;;;;;;20.41;53.17;102281.19;7374958;19;20019;-76
2022/07/27 11:38:27;;;;;;;2.10;1.70;;;;;;;20.05;54.25;102274.19;7376582;19;20025;-75
2022/07/27 11:40:57;;;;;;;4.70;1.65;;;;;;;20.41;54.91;102276.75;7377942;19;20143;-76
2022/07/27 11:43:48;;;;;;;2.67;1.63;;;;;;;20.64;54.13;102265.97;7377208;19;20006;-75
2022/07/27 11:46:21;;;;;;;6.22;1.80;;;;;;;20.84;54.79;102273.81;7375690;19;20474;-76
2022/07/27 11:48:57;;;;;;;4.50;1.73;;;;;;;21.01;53.05;102271.94;7379968;19;20966;-76
2022/07/27 11:51:39;;;;;;;3.72;1.65;;;;;;;20.54;53.20;102277.59;7375650;19;20047;-75
2022/07/27 11:54:13;;;;;;;3.00;1.80;;;;;;;20.68;52.14;102269.53;7368581;19;20015;-76
2022/07/27 11:56:46;;;;;;;2.40;1.50;;;;;;;20.15;51.79;102289.25;7373011;19;20010;-76
2022/07/27 11:59:19;;;;;;;4.15;1.80;;;;;;;20.21;55.26;102291.91;7377247;19;20042;-77
2022/07/27 12:01:54;;;;;;;4.95;1.95;;;;;;;20.08;59.70;102284.84;7375747;19;20026;-75
2022/07/27 12:04:27;;;;;;;4.07;1.85;;;;;;;20.18;59.90;102283.94;7377492;19;20015;-76
2022/07/27 12:07:03;;;;;;;7.30;2.40;;;;;;;20.71;61.00;102282.81;7375377;19;20037;-76
2022/07/27 12:09:38;;;;;;;5.05;1.80;;;;;;;21.12;57.71;102283.41;7373577;19;20007;-76
2022/07/27 12:12:14;;;;;;;5.55;2.00;;;;;;;20.94;57.73;102272.88;7375294;19;20337;-77
2022/07/27 12:14:49;;;;;;;2.20;1.65;;;;;;;22.28;58.93;102260.91;7374721;19;20030;-74
2022/07/27 12:17:23;;;;;;;6.53;2.30;;;;;;;21.23;56.14;102266.47;7375305;19;20031;-76
2022/07/27 12:19:57;;;;;;;5.60;2.38;;;;;;;21.51;56.06;102270.66;7373830;19;20311;-75
2022/07/27 12:22:33;;;;;;;5.45;1.90;;;;;;;21.27;56.04;102270.88;7374637;19;20026;-76
2022/07/27 12:25:09;;;;;;;4.03;2.10;;;;;;;21.67;55.38;102261.63;7379265;19;20014;-76
2022/07/27 12:27:57;;;;;;;7.15;2.30;;;;;;;21.93;54.89;102255.06;7380810;19;20015;-75
2022/07/27 12:30:32;;;;;;;4.80;1.90;;;;;;;21.81;56.29;102256.13;7381210;19;20019;-75
2022/07/27 12:33:04;;;;;;;4.18;2.05;;;;;;;21.90;55.95;102266.69;7380311;19;20014;-77
2022/07/27 12:35:45;;;;;;;7.65;2.30;;;;;;;21.43;57.46;102264.50;7382610;19;20044;-76
2022/07/27 12:38:18;;;;;;;3.22;1.90;;;;;;;22.21;56.67;102256.56;7384007;19;20512;-77
2022/07/27 12:40:54;;;;;;;7.25;2.25;;;;;;;21.19;60.19;102261.13;7384690;19;20095;-77
2022/07/27 12:43:29;;;;;;;5.53;2.13;;;;;;;21.24;58.17;102254.91;7381780;19;20367;-76
2022/07/27 12:46:03;;;;;;;6.30;2.20;;;;;;;21.10;59.73;102262.97;7384218;19;20159;-76
2022/07/27 12:48:40;;;;;;;6.53;2.20;;;;;;;21.15;59.48;102262.03;7380180;19;20610;-76
2022/07/27 12:51:11;;;;;;;11.85;2.30;;;;;;;20.78;60.80;102260.56;7382490;19;20043;-75
2022/07/27 12:53:42;;;;;;;6.20;1.92;;;;;;;20.96;59.50;102249.75;7377599;19;20497;-75
2022/07/27 12:56:15;;;;;;;6.85;2.38;;;;;;;21.59;58.81;102239.44;7380480;19;20014;-75